sensor_id;sensor_type;location;lat;lon;timestamp;temperature;humidity
5394;DHT22;2720;52.396;10.064;2022-12-29T00:01:28;8.90;99.90
5394;DHT22;2720;52.396;10.064;2022-12-29T00:03:56;9.00;99.90
5394;DHT22;2720;52.396;10.064;2022-12-29T00:06:24;9.00;99.90
5394;DHT22;2720;52.396;10.064;2022-12-29T00:08:51;9.00;99.90
5394;DHT22;2720;52.396;10.064;2022-12-29T00:11:20;9.00;99.90
5394;DHT22;2720;52.396;10.064;2022-12-29T00:13:48;9.00;99.90
5394;DHT22;2720;52.396;10.064;2022-12-29T00:16:33;9.10;99.90
5394;DHT22;2720;52.396;10.064;2022-12-29T00:19:01;9.10;99.90
5394;DHT22;2720;52.396;10.064;2022-12-29T00:21:30;9.10;99.90
5394;DHT22;2720;52.396;10.064;2022-12-29T00:24:16;9.10;99.90
5394;DHT22;2720;52.396;10.064;2022-12-29T00:27:10;9.10;99.90
5394;DHT22;2720;52.396;10.064;2022-12-29T00:29:55;9.10;99.90
5394;DHT22;2720;52.396;10.064;2022-12-29T00:32:39;9.20;99.90
5394;DHT22;2720;52.396;10.064;2022-12-29T00:35:28;9.20;99.90
5394;DHT22;2720;52.396;10.064;2022-12-29T00:38:00;9.20;99.90
5394;DHT22;2720;52.396;10.064;2022-12-29T00:40:45;9.20;99.90
5394;DHT22;2720;52.396;10.064;2022-12-29T00:43:29;9.30;99.90
5394;DHT22;2720;52.396;10.064;2022-12-29T00:46:13;9.20;99.90
5394;DHT22;2720;52.396;10.064;2022-12-29T00:48:40;9.20;99.90
5394;DHT22;2720;52.396;10.064;2022-12-29T00:51:24;9.30;99.90
5394;DHT22;2720;52.396;10.064;2022-12-29T00:53:53;9.30;99.90
5394;DHT22;2720;52.396;10.064;2022-12-29T00:56:20;9.30;99.90
5394;DHT22;2720;52.396;10.064;2022-12-29T00:58:47;9.40;99.90
5394;DHT22;2720;52.396;10.064;2022-12-29T01:01:14;9.40;99.90
5394;DHT22;2720;52.396;10.064;2022-12-29T01:03:41;9.40;99.90
5394;DHT22;2720;52.396;10.064;2022-12-29T01:06:10;9.50;99.90
5394;DHT22;2720;52.396;10.064;2022-12-29T01:08:37;9.50;99.90
5394;DHT22;2720;52.396;10.064;2022-12-29T01:11:07;9.50;99.90
5394;DHT22;2720;52.396;10.064;2022-12-29T01:13:34;9.50;99.90
5394;DHT22;2720;52.396;10.064;2022-12-29T01:16:03;9.60;99.90
5394;DHT22;2720;52.396;10.064;2022-12-29T01:18:30;9.30;99.90
5394;DHT22;2720;52.396;10.064;2022-12-29T01:21:01;9.30;99.90
5394;DHT22;2720;52.396;10.064;2022-12-29T01:23:29;9.30;99.90
5394;DHT22;2720;52.396;10.064;2022-12-29T01:25:56;9.30;99.90
5394;DHT22;2720;52.396;10.064;2022-12-29T01:28:25;9.20;99.90
5394;DHT22;2720;52.396;10.064;2022-12-29T01:30:52;9.20;99.90
5394;DHT22;2720;52.396;10.064;2022-12-29T01:33:18;9.20;99.90
5394;DHT22;2720;52.396;10.064;2022-12-29T01:35:45;9.20;99.90
5394;DHT22;2720;52.396;10.064;2022-12-29T01:38:12;9.10;99.90
5394;DHT22;2720;52.396;10.064;2022-12-29T01:40:46;9.20;99.90
5394;DHT22;2720;52.396;10.064;2022-12-29T01:43:14;9.20;99.90
5394;DHT22;2720;52.396;10.064;2022-12-29T01:45:48;9.30;99.90
5394;DHT22;2720;52.396;10.064;2022-12-29T01:48:18;9.40;99.90
5394;DHT22;2720;52.396;10.064;2022-12-29T01:50:50;9.40;99.90
5394;DHT22;2720;52.396;10.064;2022-12-29T01:53:22;9.30;99.90
5394;DHT22;2720;52.396;10.064;2022-12-29T01:55:54;9.30;99.90
5394;DHT22;2720;52.396;10.064;2022-12-29T01:58:24;9.30;99.90
5394;DHT22;2720;52.396;10.064;2022-12-29T02:00:54;9.30;99.90
5394;DHT22;2720;52.396;10.064;2022-12-29T02:03:23;9.30;99.90
5394;DHT22;2720;52.396;10.064;2022-12-29T02:05:55;9.20;99.90
5394;DHT22;2720;52.396;10.064;2022-12-29T02:08:26;9.20;99.90
5394;DHT22;2720;52.396;10.064;2022-12-29T02:10:56;9.10;99.90
5394;DHT22;2720;52.396;10.064;2022-12-29T02:13:24;9.10;99.90
5394;DHT22;2720;52.396;10.064;2022-12-29T02:16:00;9.00;99.90
5394;DHT22;2720;52.396;10.064;2022-12-29T02:18:39;9.00;99.90
5394;DHT22;2720;52.396;10.064;2022-12-29T02:21:37;8.90;99.90
5394;DHT22;2720;52.396;10.064;2022-12-29T02:27:40;9.00;99.90
5394;DHT22;2720;52.396;10.064;2022-12-29T02:30:16;9.00;99.90
5394;DHT22;2720;52.396;10.064;2022-12-29T02:32:56;9.00;99.90
5394;DHT22;2720;52.396;10.064;2022-12-29T02:35:29;8.90;99.90
5394;DHT22;2720;52.396;10.064;2022-12-29T02:38:06;8.90;99.90
5394;DHT22;2720;52.396;10.064;2022-12-29T02:40:40;8.90;99.90
5394;DHT22;2720;52.396;10.064;2022-12-29T02:43:14;9.00;99.90
5394;DHT22;2720;52.396;10.064;2022-12-29T02:45:49;9.10;99.90
5394;DHT22;2720;52.396;10.064;2022-12-29T02:48:25;9.30;99.90
5394;DHT22;2720;52.396;10.064;2022-12-29T02:50:59;9.30;99.90
5394;DHT22;2720;52.396;10.064;2022-12-29T02:53:29;9.40;99.90
5394;DHT22;2720;52.396;10.064;2022-12-29T02:56:14;9.40;99.90
5394;DHT22;2720;52.396;10.064;2022-12-29T02:58:41;9.50;99.90
5394;DHT22;2720;52.396;10.064;2022-12-29T03:01:21;9.60;99.90
5394;DHT22;2720;52.396;10.064;2022-12-29T03:06:52;9.60;99.90
5394;DHT22;2720;52.396;10.064;2022-12-29T03:09:29;9.70;99.90
5394;DHT22;2720;52.396;10.064;2022-12-29T03:12:05;9.60;99.90
5394;DHT22;2720;52.396;10.064;2022-12-29T03:14:51;9.60;99.90
5394;DHT22;2720;52.396;10.064;2022-12-29T03:17:46;9.70;99.90
5394;DHT22;2720;52.396;10.064;2022-12-29T03:20:19;9.60;99.90
5394;DHT22;2720;52.396;10.064;2022-12-29T03:22:49;9.60;99.90
5394;DHT22;2720;52.396;10.064;2022-12-29T03:25:23;9.70;99.90
5394;DHT22;2720;52.396;10.064;2022-12-29T03:27:56;9.70;99.90
5394;DHT22;2720;52.396;10.064;2022-12-29T03:30:24;9.70;99.90
5394;DHT22;2720;52.396;10.064;2022-12-29T03:32:54;9.60;99.90
5394;DHT22;2720;52.396;10.064;2022-12-29T03:35:27;9.70;99.90
5394;DHT22;2720;52.396;10.064;2022-12-29T03:37:59;9.70;99.90
5394;DHT22;2720;52.396;10.064;2022-12-29T03:40:28;9.70;99.90
5394;DHT22;2720;52.396;10.064;2022-12-29T03:42:56;9.70;99.90
5394;DHT22;2720;52.396;10.064;2022-12-29T03:45:23;9.60;99.90
5394;DHT22;2720;52.396;10.064;2022-12-29T03:47:51;9.70;99.90
5394;DHT22;2720;52.396;10.064;2022-12-29T03:50:19;9.70;99.90
5394;DHT22;2720;52.396;10.064;2022-12-29T03:52:48;9.70;99.90
5394;DHT22;2720;52.396;10.064;2022-12-29T03:55:15;9.70;99.90
5394;DHT22;2720;52.396;10.064;2022-12-29T03:57:42;9.60;99.90
5394;DHT22;2720;52.396;10.064;2022-12-29T04:00:10;9.70;99.90
5394;DHT22;2720;52.396;10.064;2022-12-29T04:02:37;9.60;99.90
5394;DHT22;2720;52.396;10.064;2022-12-29T04:05:05;9.70;99.90
5394;DHT22;2720;52.396;10.064;2022-12-29T04:07:32;9.70;99.90
5394;DHT22;2720;52.396;10.064;2022-12-29T04:10:00;9.60;99.90
5394;DHT22;2720;52.396;10.064;2022-12-29T04:12:27;9.60;99.90
5394;DHT22;2720;52.396;10.064;2022-12-29T04:14:54;9.60;99.90
5394;DHT22;2720;52.396;10.064;2022-12-29T04:17:21;9.70;99.90
5394;DHT22;2720;52.396;10.064;2022-12-29T04:19:48;9.70;99.90
5394;DHT22;2720;52.396;10.064;2022-12-29T04:22:15;9.70;99.90
5394;DHT22;2720;52.396;10.064;2022-12-29T04:24:42;9.80;99.90
5394;DHT22;2720;52.396;10.064;2022-12-29T04:27:10;9.80;99.90
5394;DHT22;2720;52.396;10.064;2022-12-29T04:29:37;9.80;99.90
5394;DHT22;2720;52.396;10.064;2022-12-29T04:32:04;9.80;99.90
5394;DHT22;2720;52.396;10.064;2022-12-29T04:34:31;9.90;99.90
5394;DHT22;2720;52.396;10.064;2022-12-29T04:36:58;9.90;99.90
5394;DHT22;2720;52.396;10.064;2022-12-29T04:39:25;9.80;99.90
5394;DHT22;2720;52.396;10.064;2022-12-29T04:41:52;9.90;99.90
5394;DHT22;2720;52.396;10.064;2022-12-29T04:44:20;9.80;99.90
5394;DHT22;2720;52.396;10.064;2022-12-29T04:46:47;9.80;99.90
5394;DHT22;2720;52.396;10.064;2022-12-29T04:49:14;9.80;99.90
5394;DHT22;2720;52.396;10.064;2022-12-29T04:51:41;9.70;99.90
5394;DHT22;2720;52.396;10.064;2022-12-29T04:54:08;9.80;99.90
5394;DHT22;2720;52.396;10.064;2022-12-29T04:56:35;9.80;99.90
5394;DHT22;2720;52.396;10.064;2022-12-29T04:59:02;9.80;99.90
5394;DHT22;2720;52.396;10.064;2022-12-29T05:01:31;9.80;99.90
5394;DHT22;2720;52.396;10.064;2022-12-29T05:03:58;9.80;99.90
5394;DHT22;2720;52.396;10.064;2022-12-29T05:06:24;9.90;99.90
5394;DHT22;2720;52.396;10.064;2022-12-29T05:08:51;10.00;99.90
5394;DHT22;2720;52.396;10.064;2022-12-29T05:11:18;10.10;99.90
5394;DHT22;2720;52.396;10.064;2022-12-29T05:13:45;10.10;99.90
5394;DHT22;2720;52.396;10.064;2022-12-29T05:16:13;10.20;99.90
5394;DHT22;2720;52.396;10.064;2022-12-29T05:21:08;10.30;99.90
5394;DHT22;2720;52.396;10.064;2022-12-29T05:23:35;10.40;99.90
5394;DHT22;2720;52.396;10.064;2022-12-29T05:26:02;10.50;99.90
5394;DHT22;2720;52.396;10.064;2022-12-29T05:28:29;10.60;99.90
5394;DHT22;2720;52.396;10.064;2022-12-29T06:05:27;10.40;99.90
5394;DHT22;2720;52.396;10.064;2022-12-29T06:07:54;10.60;99.90
5394;DHT22;2720;52.396;10.064;2022-12-29T06:10:22;10.50;99.90
5394;DHT22;2720;52.396;10.064;2022-12-29T06:12:49;10.40;99.90
5394;DHT22;2720;52.396;10.064;2022-12-29T06:15:16;10.40;99.90
5394;DHT22;2720;52.396;10.064;2022-12-29T06:17:43;10.30;99.90
5394;DHT22;2720;52.396;10.064;2022-12-29T06:20:11;10.20;99.90
5394;DHT22;2720;52.396;10.064;2022-12-29T06:22:38;10.30;99.90
5394;DHT22;2720;52.396;10.064;2022-12-29T06:25:06;10.30;99.90
5394;DHT22;2720;52.396;10.064;2022-12-29T06:27:34;10.30;99.90
5394;DHT22;2720;52.396;10.064;2022-12-29T06:30:02;10.20;99.90
5394;DHT22;2720;52.396;10.064;2022-12-29T06:32:29;10.10;99.90
5394;DHT22;2720;52.396;10.064;2022-12-29T06:34:56;10.00;99.90
5394;DHT22;2720;52.396;10.064;2022-12-29T06:37:22;10.00;99.90
5394;DHT22;2720;52.396;10.064;2022-12-29T06:39:49;10.00;99.90
5394;DHT22;2720;52.396;10.064;2022-12-29T06:42:16;10.00;99.90
5394;DHT22;2720;52.396;10.064;2022-12-29T06:44:45;10.00;99.90
5394;DHT22;2720;52.396;10.064;2022-12-29T06:47:12;10.00;99.90
5394;DHT22;2720;52.396;10.064;2022-12-29T06:49:39;10.00;99.90
5394;DHT22;2720;52.396;10.064;2022-12-29T06:52:06;10.00;99.90
5394;DHT22;2720;52.396;10.064;2022-12-29T06:54:33;10.00;99.90
5394;DHT22;2720;52.396;10.064;2022-12-29T06:57:00;10.00;99.90
5394;DHT22;2720;52.396;10.064;2022-12-29T06:59:27;10.00;99.90
5394;DHT22;2720;52.396;10.064;2022-12-29T07:01:55;10.10;99.90
5394;DHT22;2720;52.396;10.064;2022-12-29T07:04:22;10.00;99.90
5394;DHT22;2720;52.396;10.064;2022-12-29T07:06:49;10.00;99.90
5394;DHT22;2720;52.396;10.064;2022-12-29T07:09:16;10.00;99.90
5394;DHT22;2720;52.396;10.064;2022-12-29T07:11:43;10.10;99.90
5394;DHT22;2720;52.396;10.064;2022-12-29T07:14:10;10.10;99.90
5394;DHT22;2720;52.396;10.064;2022-12-29T07:16:38;10.20;99.90
5394;DHT22;2720;52.396;10.064;2022-12-29T07:19:06;10.30;99.90
5394;DHT22;2720;52.396;10.064;2022-12-29T07:21:33;10.30;99.90
5394;DHT22;2720;52.396;10.064;2022-12-29T07:24:01;10.30;99.90
5394;DHT22;2720;52.396;10.064;2022-12-29T07:26:28;10.30;99.90
5394;DHT22;2720;52.396;10.064;2022-12-29T07:28:55;10.40;99.90
5394;DHT22;2720;52.396;10.064;2022-12-29T07:31:23;10.50;99.90
5394;DHT22;2720;52.396;10.064;2022-12-29T07:48:35;10.70;99.90
5394;DHT22;2720;52.396;10.064;2022-12-29T07:51:02;10.70;99.90
5394;DHT22;2720;52.396;10.064;2022-12-29T07:53:31;10.30;99.90
5394;DHT22;2720;52.396;10.064;2022-12-29T07:55:57;10.00;99.90
5394;DHT22;2720;52.396;10.064;2022-12-29T07:58:24;9.70;99.90
5394;DHT22;2720;52.396;10.064;2022-12-29T08:00:53;9.60;99.90
5394;DHT22;2720;52.396;10.064;2022-12-29T08:03:20;9.40;99.90
5394;DHT22;2720;52.396;10.064;2022-12-29T08:05:47;9.40;99.90
5394;DHT22;2720;52.396;10.064;2022-12-29T08:08:14;9.40;99.90
5394;DHT22;2720;52.396;10.064;2022-12-29T08:10:43;9.30;99.90
5394;DHT22;2720;52.396;10.064;2022-12-29T08:13:10;9.20;99.90
5394;DHT22;2720;52.396;10.064;2022-12-29T08:15:38;9.10;99.90
5394;DHT22;2720;52.396;10.064;2022-12-29T08:18:05;9.00;99.90
5394;DHT22;2720;52.396;10.064;2022-12-29T08:20:32;8.90;99.90
5394;DHT22;2720;52.396;10.064;2022-12-29T08:22:59;8.80;99.90
5394;DHT22;2720;52.396;10.064;2022-12-29T08:25:26;8.80;99.90
5394;DHT22;2720;52.396;10.064;2022-12-29T08:27:55;8.70;99.90
5394;DHT22;2720;52.396;10.064;2022-12-29T08:30:22;8.70;99.90
5394;DHT22;2720;52.396;10.064;2022-12-29T08:32:49;8.80;99.90
5394;DHT22;2720;52.396;10.064;2022-12-29T08:35:16;8.80;99.90
5394;DHT22;2720;52.396;10.064;2022-12-29T08:37:43;9.00;99.90
5394;DHT22;2720;52.396;10.064;2022-12-29T08:40:10;9.10;99.90
5394;DHT22;2720;52.396;10.064;2022-12-29T08:42:37;9.10;99.90
5394;DHT22;2720;52.396;10.064;2022-12-29T08:45:07;9.20;99.90
5394;DHT22;2720;52.396;10.064;2022-12-29T08:47:35;9.30;99.90
5394;DHT22;2720;52.396;10.064;2022-12-29T08:50:03;9.30;99.90
5394;DHT22;2720;52.396;10.064;2022-12-29T08:52:30;9.20;99.90
5394;DHT22;2720;52.396;10.064;2022-12-29T08:54:57;9.40;99.90
5394;DHT22;2720;52.396;10.064;2022-12-29T08:57:24;9.50;99.90
5394;DHT22;2720;52.396;10.064;2022-12-29T08:59:51;9.50;99.90
5394;DHT22;2720;52.396;10.064;2022-12-29T09:02:19;9.50;99.90
5394;DHT22;2720;52.396;10.064;2022-12-29T09:04:46;9.50;99.90
5394;DHT22;2720;52.396;10.064;2022-12-29T09:07:13;9.50;99.90
5394;DHT22;2720;52.396;10.064;2022-12-29T09:09:40;9.50;99.90
5394;DHT22;2720;52.396;10.064;2022-12-29T09:12:07;9.50;99.90
5394;DHT22;2720;52.396;10.064;2022-12-29T09:14:34;9.50;99.90
5394;DHT22;2720;52.396;10.064;2022-12-29T09:17:01;9.50;99.90
5394;DHT22;2720;52.396;10.064;2022-12-29T09:19:47;9.50;99.90
5394;DHT22;2720;52.396;10.064;2022-12-29T09:22:14;9.50;99.90
5394;DHT22;2720;52.396;10.064;2022-12-29T09:24:41;9.60;99.90
5394;DHT22;2720;52.396;10.064;2022-12-29T09:27:08;9.60;99.90
5394;DHT22;2720;52.396;10.064;2022-12-29T09:29:35;9.70;99.90
5394;DHT22;2720;52.396;10.064;2022-12-29T09:32:02;9.70;99.90
5394;DHT22;2720;52.396;10.064;2022-12-29T09:34:29;9.60;99.90
5394;DHT22;2720;52.396;10.064;2022-12-29T09:36:57;9.70;99.90
5394;DHT22;2720;52.396;10.064;2022-12-29T09:39:24;9.60;99.90
5394;DHT22;2720;52.396;10.064;2022-12-29T09:41:56;9.60;99.90
5394;DHT22;2720;52.396;10.064;2022-12-29T09:44:31;9.60;99.90
5394;DHT22;2720;52.396;10.064;2022-12-29T09:47:08;9.70;99.90
5394;DHT22;2720;52.396;10.064;2022-12-29T09:49:42;9.80;99.90
5394;DHT22;2720;52.396;10.064;2022-12-29T09:52:14;9.90;99.90
5394;DHT22;2720;52.396;10.064;2022-12-29T09:54:49;9.90;99.90
5394;DHT22;2720;52.396;10.064;2022-12-29T09:57:21;9.90;99.90
5394;DHT22;2720;52.396;10.064;2022-12-29T09:59:50;9.90;99.90
5394;DHT22;2720;52.396;10.064;2022-12-29T10:02:32;9.90;99.90
5394;DHT22;2720;52.396;10.064;2022-12-29T10:05:00;9.90;99.90
5394;DHT22;2720;52.396;10.064;2022-12-29T10:07:43;9.90;99.90
5394;DHT22;2720;52.396;10.064;2022-12-29T10:10:20;9.90;99.90
5394;DHT22;2720;52.396;10.064;2022-12-29T10:13:01;10.00;99.90
5394;DHT22;2720;52.396;10.064;2022-12-29T10:15:40;10.10;99.90
5394;DHT22;2720;52.396;10.064;2022-12-29T10:18:23;10.10;99.90
5394;DHT22;2720;52.396;10.064;2022-12-29T10:20:56;10.20;99.90
5394;DHT22;2720;52.396;10.064;2022-12-29T10:23:31;10.20;99.90
5394;DHT22;2720;52.396;10.064;2022-12-29T10:26:00;10.10;99.90
5394;DHT22;2720;52.396;10.064;2022-12-29T10:28:35;10.00;99.90
5394;DHT22;2720;52.396;10.064;2022-12-29T10:31:05;9.90;99.90
5394;DHT22;2720;52.396;10.064;2022-12-29T10:33:37;9.90;99.90
5394;DHT22;2720;52.396;10.064;2022-12-29T10:36:13;9.80;99.90
5394;DHT22;2720;52.396;10.064;2022-12-29T10:38:48;9.60;99.90
5394;DHT22;2720;52.396;10.064;2022-12-29T10:41:21;9.50;99.90
5394;DHT22;2720;52.396;10.064;2022-12-29T10:43:52;9.30;99.90
5394;DHT22;2720;52.396;10.064;2022-12-29T10:46:23;9.30;99.90
5394;DHT22;2720;52.396;10.064;2022-12-29T10:48:50;9.20;99.90
5394;DHT22;2720;52.396;10.064;2022-12-29T10:51:21;9.30;99.90
5394;DHT22;2720;52.396;10.064;2022-12-29T10:53:53;9.40;99.90
5394;DHT22;2720;52.396;10.064;2022-12-29T10:56:30;9.60;99.90
5394;DHT22;2720;52.396;10.064;2022-12-29T10:59:03;9.70;99.90
5394;DHT22;2720;52.396;10.064;2022-12-29T11:01:38;9.90;99.90
5394;DHT22;2720;52.396;10.064;2022-12-29T11:04:37;9.90;99.90
5394;DHT22;2720;52.396;10.064;2022-12-29T12:27:41;12.90;99.90
5394;DHT22;2720;52.396;10.064;2022-12-29T12:30:15;13.10;99.90
5394;DHT22;2720;52.396;10.064;2022-12-29T12:32:48;12.90;99.90
5394;DHT22;2720;52.396;10.064;2022-12-29T12:35:23;12.60;99.90
5394;DHT22;2720;52.396;10.064;2022-12-29T12:40:34;11.90;99.90
5394;DHT22;2720;52.396;10.064;2022-12-29T12:45:50;11.70;99.90
5394;DHT22;2720;52.396;10.064;2022-12-29T13:06:37;11.20;99.90
5394;DHT22;2720;52.396;10.064;2022-12-29T13:09:30;11.40;99.90
5394;DHT22;2720;52.396;10.064;2022-12-29T13:12:11;11.20;99.90
5394;DHT22;2720;52.396;10.064;2022-12-29T13:14:52;11.20;99.90
5394;DHT22;2720;52.396;10.064;2022-12-29T13:17:27;11.10;99.90
5394;DHT22;2720;52.396;10.064;2022-12-29T13:20:02;11.00;99.90
5394;DHT22;2720;52.396;10.064;2022-12-29T13:22:40;11.00;99.90
5394;DHT22;2720;52.396;10.064;2022-12-29T13:25:20;11.00;99.90
5394;DHT22;2720;52.396;10.064;2022-12-29T13:27:51;10.90;99.90
5394;DHT22;2720;52.396;10.064;2022-12-29T13:30:21;11.00;99.90
5394;DHT22;2720;52.396;10.064;2022-12-29T13:32:59;10.90;99.90
5394;DHT22;2720;52.396;10.064;2022-12-29T13:35:44;11.00;99.90
5394;DHT22;2720;52.396;10.064;2022-12-29T13:38:18;11.00;99.90
5394;DHT22;2720;52.396;10.064;2022-12-29T13:40:52;10.90;99.90
5394;DHT22;2720;52.396;10.064;2022-12-29T13:43:22;10.90;99.90
5394;DHT22;2720;52.396;10.064;2022-12-29T13:45:57;10.90;99.90
5394;DHT22;2720;52.396;10.064;2022-12-29T13:48:34;10.80;99.90
5394;DHT22;2720;52.396;10.064;2022-12-29T13:51:05;10.80;99.90
5394;DHT22;2720;52.396;10.064;2022-12-29T13:53:40;10.90;99.90
5394;DHT22;2720;52.396;10.064;2022-12-29T13:56:12;10.90;99.90
5394;DHT22;2720;52.396;10.064;2022-12-29T13:58:45;10.90;99.90
5394;DHT22;2720;52.396;10.064;2022-12-29T14:01:19;10.90;99.90
5394;DHT22;2720;52.396;10.064;2022-12-29T14:03:50;10.90;99.90
5394;DHT22;2720;52.396;10.064;2022-12-29T14:06:23;10.80;99.90
5394;DHT22;2720;52.396;10.064;2022-12-29T14:08:53;10.80;99.90
5394;DHT22;2720;52.396;10.064;2022-12-29T14:11:22;10.80;99.90
5394;DHT22;2720;52.396;10.064;2022-12-29T14:13:51;10.90;99.90
5394;DHT22;2720;52.396;10.064;2022-12-29T14:16:29;10.90;99.90
5394;DHT22;2720;52.396;10.064;2022-12-29T14:19:05;10.90;99.90
5394;DHT22;2720;52.396;10.064;2022-12-29T14:21:36;10.90;99.90
5394;DHT22;2720;52.396;10.064;2022-12-29T14:24:40;10.90;99.90
5394;DHT22;2720;52.396;10.064;2022-12-29T14:30:47;10.90;99.90
5394;DHT22;2720;52.396;10.064;2022-12-29T14:33:15;10.80;99.90
5394;DHT22;2720;52.396;10.064;2022-12-29T14:35:48;10.80;99.90
5394;DHT22;2720;52.396;10.064;2022-12-29T14:38:29;10.80;99.90
5394;DHT22;2720;52.396;10.064;2022-12-29T14:41:16;10.80;99.90
5394;DHT22;2720;52.396;10.064;2022-12-29T14:43:52;10.90;99.90
5394;DHT22;2720;52.396;10.064;2022-12-29T14:46:21;10.80;99.90
5394;DHT22;2720;52.396;10.064;2022-12-29T14:48:55;10.80;99.90
5394;DHT22;2720;52.396;10.064;2022-12-29T14:51:32;10.80;99.90
5394;DHT22;2720;52.396;10.064;2022-12-29T14:54:34;10.80;99.90
5394;DHT22;2720;52.396;10.064;2022-12-29T14:57:10;10.70;99.90
5394;DHT22;2720;52.396;10.064;2022-12-29T14:59:39;10.70;99.90
5394;DHT22;2720;52.396;10.064;2022-12-29T15:02:15;10.70;99.90
5394;DHT22;2720;52.396;10.064;2022-12-29T15:04:43;10.70;99.90
5394;DHT22;2720;52.396;10.064;2022-12-29T15:07:13;10.70;99.90
5394;DHT22;2720;52.396;10.064;2022-12-29T15:09:43;10.70;99.90
5394;DHT22;2720;52.396;10.064;2022-12-29T15:12:20;10.70;99.90
5394;DHT22;2720;52.396;10.064;2022-12-29T15:14:52;10.60;99.90
5394;DHT22;2720;52.396;10.064;2022-12-29T15:17:25;10.60;99.90
5394;DHT22;2720;52.396;10.064;2022-12-29T15:19:52;10.50;99.90
5394;DHT22;2720;52.396;10.064;2022-12-29T15:22:21;10.40;99.90
5394;DHT22;2720;52.396;10.064;2022-12-29T15:24:51;10.50;99.90
5394;DHT22;2720;52.396;10.064;2022-12-29T15:27:20;10.30;99.90
5394;DHT22;2720;52.396;10.064;2022-12-29T15:29:55;10.30;99.90
5394;DHT22;2720;52.396;10.064;2022-12-29T15:32:24;10.20;99.90
5394;DHT22;2720;52.396;10.064;2022-12-29T15:34:53;10.30;99.90
5394;DHT22;2720;52.396;10.064;2022-12-29T15:37:23;10.30;99.90
5394;DHT22;2720;52.396;10.064;2022-12-29T15:39:50;10.30;99.90
5394;DHT22;2720;52.396;10.064;2022-12-29T15:42:49;10.30;99.90
5394;DHT22;2720;52.396;10.064;2022-12-29T15:45:19;10.30;99.90
5394;DHT22;2720;52.396;10.064;2022-12-29T15:47:47;10.30;99.90
5394;DHT22;2720;52.396;10.064;2022-12-29T15:50:22;10.30;99.90
5394;DHT22;2720;52.396;10.064;2022-12-29T15:52:51;10.10;99.90
5394;DHT22;2720;52.396;10.064;2022-12-29T15:55:21;10.00;99.90
5394;DHT22;2720;52.396;10.064;2022-12-29T15:57:49;9.80;99.90
5394;DHT22;2720;52.396;10.064;2022-12-29T16:00:24;9.70;99.90
5394;DHT22;2720;52.396;10.064;2022-12-29T16:02:52;9.60;99.90
5394;DHT22;2720;52.396;10.064;2022-12-29T16:05:20;9.60;99.90
5394;DHT22;2720;52.396;10.064;2022-12-29T16:07:57;9.50;99.90
5394;DHT22;2720;52.396;10.064;2022-12-29T16:10:28;9.50;99.90
5394;DHT22;2720;52.396;10.064;2022-12-29T16:13:05;9.50;99.90
5394;DHT22;2720;52.396;10.064;2022-12-29T16:15:39;9.60;99.90
5394;DHT22;2720;52.396;10.064;2022-12-29T16:18:20;9.60;99.90
5394;DHT22;2720;52.396;10.064;2022-12-29T16:20:49;9.70;99.90
5394;DHT22;2720;52.396;10.064;2022-12-29T16:23:21;9.70;99.90
5394;DHT22;2720;52.396;10.064;2022-12-29T16:25:49;9.70;99.90
5394;DHT22;2720;52.396;10.064;2022-12-29T16:28:18;9.60;99.90
5394;DHT22;2720;52.396;10.064;2022-12-29T16:30:46;9.60;99.90
5394;DHT22;2720;52.396;10.064;2022-12-29T16:33:38;9.50;99.90
5394;DHT22;2720;52.396;10.064;2022-12-29T16:36:38;9.50;99.90
5394;DHT22;2720;52.396;10.064;2022-12-29T16:39:28;9.50;99.90
5394;DHT22;2720;52.396;10.064;2022-12-29T16:41:55;9.40;99.90
5394;DHT22;2720;52.396;10.064;2022-12-29T16:44:24;9.30;99.90
5394;DHT22;2720;52.396;10.064;2022-12-29T16:47:19;9.30;99.90
5394;DHT22;2720;52.396;10.064;2022-12-29T16:49:52;9.30;99.90
5394;DHT22;2720;52.396;10.064;2022-12-29T16:52:22;9.30;99.90
5394;DHT22;2720;52.396;10.064;2022-12-29T16:54:54;9.30;99.90
5394;DHT22;2720;52.396;10.064;2022-12-29T16:57:25;9.30;99.90
5394;DHT22;2720;52.396;10.064;2022-12-29T16:59:56;9.30;99.90
5394;DHT22;2720;52.396;10.064;2022-12-29T17:02:25;9.20;99.90
5394;DHT22;2720;52.396;10.064;2022-12-29T17:04:52;9.20;99.90
5394;DHT22;2720;52.396;10.064;2022-12-29T17:07:21;9.20;99.90
5394;DHT22;2720;52.396;10.064;2022-12-29T17:09:48;9.20;99.90
5394;DHT22;2720;52.396;10.064;2022-12-29T17:12:19;9.20;99.90
5394;DHT22;2720;52.396;10.064;2022-12-29T17:14:49;9.10;99.90
5394;DHT22;2720;52.396;10.064;2022-12-29T17:17:20;9.10;99.90
5394;DHT22;2720;52.396;10.064;2022-12-29T17:19:51;9.00;99.90
5394;DHT22;2720;52.396;10.064;2022-12-29T17:22:21;9.00;99.90
5394;DHT22;2720;52.396;10.064;2022-12-29T17:24:50;9.00;99.90
5394;DHT22;2720;52.396;10.064;2022-12-29T17:27:25;9.00;99.90
5394;DHT22;2720;52.396;10.064;2022-12-29T17:29:56;8.90;99.90
5394;DHT22;2720;52.396;10.064;2022-12-29T17:32:23;8.80;99.90
5394;DHT22;2720;52.396;10.064;2022-12-29T17:34:50;8.80;99.90
5394;DHT22;2720;52.396;10.064;2022-12-29T17:37:30;8.70;99.90
5394;DHT22;2720;52.396;10.064;2022-12-29T17:39:58;8.80;99.90
5394;DHT22;2720;52.396;10.064;2022-12-29T17:42:26;8.80;99.90
5394;DHT22;2720;52.396;10.064;2022-12-29T17:44:53;8.90;99.90
5394;DHT22;2720;52.396;10.064;2022-12-29T17:47:20;8.90;99.90
5394;DHT22;2720;52.396;10.064;2022-12-29T17:49:47;8.90;99.90
5394;DHT22;2720;52.396;10.064;2022-12-29T17:52:15;9.00;99.90
5394;DHT22;2720;52.396;10.064;2022-12-29T17:54:45;9.00;99.90
5394;DHT22;2720;52.396;10.064;2022-12-29T17:57:14;9.00;99.90
5394;DHT22;2720;52.396;10.064;2022-12-29T17:59:42;8.90;99.90
5394;DHT22;2720;52.396;10.064;2022-12-29T18:02:22;8.90;99.90
5394;DHT22;2720;52.396;10.064;2022-12-29T18:04:50;8.90;99.90
5394;DHT22;2720;52.396;10.064;2022-12-29T18:07:17;8.80;99.90
5394;DHT22;2720;52.396;10.064;2022-12-29T18:09:44;8.70;99.90
5394;DHT22;2720;52.396;10.064;2022-12-29T18:12:24;8.70;99.90
5394;DHT22;2720;52.396;10.064;2022-12-29T18:14:54;8.50;99.90
5394;DHT22;2720;52.396;10.064;2022-12-29T18:17:21;8.50;99.90
5394;DHT22;2720;52.396;10.064;2022-12-29T18:19:48;8.40;99.90
5394;DHT22;2720;52.396;10.064;2022-12-29T18:22:20;8.50;99.90
5394;DHT22;2720;52.396;10.064;2022-12-29T18:24:47;8.60;99.90
5394;DHT22;2720;52.396;10.064;2022-12-29T18:27:15;8.70;99.90
5394;DHT22;2720;52.396;10.064;2022-12-29T18:29:44;8.70;99.90
5394;DHT22;2720;52.396;10.064;2022-12-29T18:32:13;8.80;99.90
5394;DHT22;2720;52.396;10.064;2022-12-29T18:34:41;8.80;99.90
5394;DHT22;2720;52.396;10.064;2022-12-29T18:37:09;8.90;99.90
5394;DHT22;2720;52.396;10.064;2022-12-29T18:39:36;9.10;99.90
5394;DHT22;2720;52.396;10.064;2022-12-29T18:42:03;9.00;99.90
5394;DHT22;2720;52.396;10.064;2022-12-29T18:44:30;9.00;99.90
5394;DHT22;2720;52.396;10.064;2022-12-29T18:46:57;9.00;99.90
5394;DHT22;2720;52.396;10.064;2022-12-29T18:49:27;9.10;99.90
5394;DHT22;2720;52.396;10.064;2022-12-29T18:51:54;9.00;99.90
5394;DHT22;2720;52.396;10.064;2022-12-29T18:54:27;9.10;99.90
5394;DHT22;2720;52.396;10.064;2022-12-29T18:56:54;9.10;99.90
5394;DHT22;2720;52.396;10.064;2022-12-29T18:59:21;9.00;99.90
5394;DHT22;2720;52.396;10.064;2022-12-29T19:01:48;8.80;99.90
5394;DHT22;2720;52.396;10.064;2022-12-29T19:04:16;8.60;99.90
5394;DHT22;2720;52.396;10.064;2022-12-29T19:06:44;8.40;99.90
5394;DHT22;2720;52.396;10.064;2022-12-29T19:09:11;8.30;99.90